sensor_id;sensor_type;location;lat;lon;timestamp;temperature;humidity
23403;DHT22;11874;48.228;11.684;2023-12-20T00:00:07;7.50;94.50
23403;DHT22;11874;48.228;11.684;2023-12-20T00:02:36;7.50;94.60
23403;DHT22;11874;48.228;11.684;2023-12-20T00:05:05;7.50;94.70
23403;DHT22;11874;48.228;11.684;2023-12-20T00:07:33;7.50;94.90
23403;DHT22;11874;48.228;11.684;2023-12-20T00:10:02;7.50;95.00
23403;DHT22;11874;48.228;11.684;2023-12-20T00:12:32;7.50;95.20
23403;DHT22;11874;48.228;11.684;2023-12-20T00:15:01;7.60;95.40
23403;DHT22;11874;48.228;11.684;2023-12-20T00:17:29;7.60;95.50
23403;DHT22;11874;48.228;11.684;2023-12-20T00:19:57;7.60;95.70
23403;DHT22;11874;48.228;11.684;2023-12-20T00:22:25;7.60;95.80
23403;DHT22;11874;48.228;11.684;2023-12-20T00:24:53;7.50;95.90
23403;DHT22;11874;48.228;11.684;2023-12-20T00:27:21;7.60;96.00
23403;DHT22;11874;48.228;11.684;2023-12-20T00:29:51;7.50;96.10
23403;DHT22;11874;48.228;11.684;2023-12-20T00:32:19;7.60;96.20
23403;DHT22;11874;48.228;11.684;2023-12-20T00:34:47;7.60;96.30
23403;DHT22;11874;48.228;11.684;2023-12-20T00:37:15;7.60;96.30
23403;DHT22;11874;48.228;11.684;2023-12-20T00:39:44;7.60;96.40
23403;DHT22;11874;48.228;11.684;2023-12-20T00:42:12;7.60;96.50
23403;DHT22;11874;48.228;11.684;2023-12-20T00:44:42;7.60;96.60
23403;DHT22;11874;48.228;11.684;2023-12-20T00:47:11;7.60;96.60
23403;DHT22;11874;48.228;11.684;2023-12-20T00:49:40;7.60;96.70
23403;DHT22;11874;48.228;11.684;2023-12-20T00:52:08;7.60;96.80
23403;DHT22;11874;48.228;11.684;2023-12-20T00:54:38;7.60;96.80
23403;DHT22;11874;48.228;11.684;2023-12-20T00:57:06;7.60;96.80
23403;DHT22;11874;48.228;11.684;2023-12-20T00:59:34;7.60;96.80
23403;DHT22;11874;48.228;11.684;2023-12-20T01:02:03;7.60;96.80
23403;DHT22;11874;48.228;11.684;2023-12-20T01:04:32;7.60;96.80
23403;DHT22;11874;48.228;11.684;2023-12-20T01:07:01;7.60;96.70
23403;DHT22;11874;48.228;11.684;2023-12-20T01:09:29;7.60;96.70
23403;DHT22;11874;48.228;11.684;2023-12-20T01:11:57;7.60;96.60
23403;DHT22;11874;48.228;11.684;2023-12-20T01:14:26;7.60;96.50
23403;DHT22;11874;48.228;11.684;2023-12-20T01:16:56;7.60;96.40
23403;DHT22;11874;48.228;11.684;2023-12-20T01:19:26;7.60;96.20
23403;DHT22;11874;48.228;11.684;2023-12-20T01:21:58;7.60;96.20
23403;DHT22;11874;48.228;11.684;2023-12-20T01:24:26;7.60;96.20
23403;DHT22;11874;48.228;11.684;2023-12-20T01:26:54;7.60;96.10
23403;DHT22;11874;48.228;11.684;2023-12-20T01:29:22;7.60;96.10
23403;DHT22;11874;48.228;11.684;2023-12-20T01:31:50;7.60;96.00
23403;DHT22;11874;48.228;11.684;2023-12-20T01:34:18;7.60;96.00
23403;DHT22;11874;48.228;11.684;2023-12-20T01:36:46;7.60;95.80
23403;DHT22;11874;48.228;11.684;2023-12-20T01:39:17;7.60;95.80
23403;DHT22;11874;48.228;11.684;2023-12-20T01:41:55;7.60;95.80
23403;DHT22;11874;48.228;11.684;2023-12-20T01:44:23;7.60;95.70
23403;DHT22;11874;48.228;11.684;2023-12-20T01:46:53;7.60;95.70
23403;DHT22;11874;48.228;11.684;2023-12-20T01:49:24;7.60;95.60
23403;DHT22;11874;48.228;11.684;2023-12-20T01:51:53;7.60;95.70
23403;DHT22;11874;48.228;11.684;2023-12-20T01:54:22;7.60;95.80
23403;DHT22;11874;48.228;11.684;2023-12-20T01:56:51;7.60;95.90
23403;DHT22;11874;48.228;11.684;2023-12-20T01:59:21;7.60;96.00
23403;DHT22;11874;48.228;11.684;2023-12-20T02:01:50;7.60;96.20
23403;DHT22;11874;48.228;11.684;2023-12-20T02:04:18;7.60;96.30
23403;DHT22;11874;48.228;11.684;2023-12-20T02:06:46;7.60;96.40
23403;DHT22;11874;48.228;11.684;2023-12-20T02:09:15;7.50;96.50
23403;DHT22;11874;48.228;11.684;2023-12-20T02:11:45;7.60;96.60
23403;DHT22;11874;48.228;11.684;2023-12-20T02:14:13;7.60;96.70
23403;DHT22;11874;48.228;11.684;2023-12-20T02:16:41;7.60;96.70
23403;DHT22;11874;48.228;11.684;2023-12-20T02:19:13;7.60;96.70
23403;DHT22;11874;48.228;11.684;2023-12-20T02:21:43;7.60;96.80
23403;DHT22;11874;48.228;11.684;2023-12-20T02:24:11;7.60;97.00
23403;DHT22;11874;48.228;11.684;2023-12-20T02:26:39;7.60;97.10
23403;DHT22;11874;48.228;11.684;2023-12-20T02:29:11;7.60;97.10
23403;DHT22;11874;48.228;11.684;2023-12-20T02:31:39;7.60;97.10
23403;DHT22;11874;48.228;11.684;2023-12-20T02:34:07;7.60;97.10
23403;DHT22;11874;48.228;11.684;2023-12-20T02:36:38;7.60;97.10
23403;DHT22;11874;48.228;11.684;2023-12-20T02:39:08;7.60;97.10
23403;DHT22;11874;48.228;11.684;2023-12-20T02:41:36;7.60;97.10
23403;DHT22;11874;48.228;11.684;2023-12-20T02:44:04;7.60;97.00
23403;DHT22;11874;48.228;11.684;2023-12-20T02:46:32;7.60;97.00
23403;DHT22;11874;48.228;11.684;2023-12-20T02:49:00;7.60;97.00
23403;DHT22;11874;48.228;11.684;2023-12-20T02:51:28;7.70;97.00
23403;DHT22;11874;48.228;11.684;2023-12-20T02:53:56;7.60;96.90
23403;DHT22;11874;48.228;11.684;2023-12-20T02:56:26;7.60;96.90
23403;DHT22;11874;48.228;11.684;2023-12-20T02:58:57;7.60;96.90
23403;DHT22;11874;48.228;11.684;2023-12-20T03:01:25;7.60;96.90
23403;DHT22;11874;48.228;11.684;2023-12-20T03:03:53;7.60;97.00
23403;DHT22;11874;48.228;11.684;2023-12-20T03:06:21;7.60;97.10
23403;DHT22;11874;48.228;11.684;2023-12-20T03:08:49;7.60;97.10
23403;DHT22;11874;48.228;11.684;2023-12-20T03:11:17;7.60;97.20
23403;DHT22;11874;48.228;11.684;2023-12-20T03:13:47;7.60;97.30
23403;DHT22;11874;48.228;11.684;2023-12-20T03:16:14;7.70;97.40
23403;DHT22;11874;48.228;11.684;2023-12-20T03:18:44;7.60;97.40
23403;DHT22;11874;48.228;11.684;2023-12-20T03:21:12;7.60;97.50
23403;DHT22;11874;48.228;11.684;2023-12-20T03:23:40;7.60;97.60
23403;DHT22;11874;48.228;11.684;2023-12-20T03:26:08;7.60;97.70
23403;DHT22;11874;48.228;11.684;2023-12-20T03:28:38;7.60;97.80
23403;DHT22;11874;48.228;11.684;2023-12-20T03:31:09;7.60;98.00
23403;DHT22;11874;48.228;11.684;2023-12-20T03:33:38;7.70;98.20
23403;DHT22;11874;48.228;11.684;2023-12-20T03:36:06;7.60;98.40
23403;DHT22;11874;48.228;11.684;2023-12-20T03:38:34;7.70;98.60
23403;DHT22;11874;48.228;11.684;2023-12-20T03:41:02;7.70;98.80
23403;DHT22;11874;48.228;11.684;2023-12-20T03:43:30;7.70;98.90
23403;DHT22;11874;48.228;11.684;2023-12-20T03:45:59;7.70;99.20
23403;DHT22;11874;48.228;11.684;2023-12-20T03:48:28;7.70;99.40
23403;DHT22;11874;48.228;11.684;2023-12-20T03:50:57;7.70;99.60
23403;DHT22;11874;48.228;11.684;2023-12-20T03:53:25;7.70;99.70
23403;DHT22;11874;48.228;11.684;2023-12-20T03:55:53;7.70;99.90
23403;DHT22;11874;48.228;11.684;2023-12-20T03:58:21;7.70;99.90
23403;DHT22;11874;48.228;11.684;2023-12-20T04:00:49;7.60;99.90
23403;DHT22;11874;48.228;11.684;2023-12-20T04:03:17;7.70;99.90
23403;DHT22;11874;48.228;11.684;2023-12-20T04:05:47;7.60;99.90
23403;DHT22;11874;48.228;11.684;2023-12-20T04:08:15;7.60;99.90
23403;DHT22;11874;48.228;11.684;2023-12-20T04:10:43;7.60;99.90
23403;DHT22;11874;48.228;11.684;2023-12-20T04:13:11;7.60;99.90
23403;DHT22;11874;48.228;11.684;2023-12-20T04:15:39;7.60;99.90
23403;DHT22;11874;48.228;11.684;2023-12-20T04:18:07;7.50;99.90
23403;DHT22;11874;48.228;11.684;2023-12-20T04:20:35;7.50;99.90
23403;DHT22;11874;48.228;11.684;2023-12-20T04:23:06;7.50;99.90
23403;DHT22;11874;48.228;11.684;2023-12-20T04:25:37;7.50;99.90
23403;DHT22;11874;48.228;11.684;2023-12-20T04:28:05;7.50;99.90
23403;DHT22;11874;48.228;11.684;2023-12-20T04:30:34;7.40;99.90
23403;DHT22;11874;48.228;11.684;2023-12-20T04:33:03;7.40;99.90
23403;DHT22;11874;48.228;11.684;2023-12-20T04:35:31;7.40;99.90
23403;DHT22;11874;48.228;11.684;2023-12-20T04:38:00;7.40;99.90
23403;DHT22;11874;48.228;11.684;2023-12-20T04:40:30;7.40;99.90
23403;DHT22;11874;48.228;11.684;2023-12-20T04:42:58;7.40;99.90
23403;DHT22;11874;48.228;11.684;2023-12-20T04:45:26;7.40;99.90
23403;DHT22;11874;48.228;11.684;2023-12-20T04:47:55;7.40;99.90
23403;DHT22;11874;48.228;11.684;2023-12-20T04:50:23;7.40;99.90
23403;DHT22;11874;48.228;11.684;2023-12-20T04:52:51;7.30;99.90
23403;DHT22;11874;48.228;11.684;2023-12-20T04:55:19;7.30;99.90
23403;DHT22;11874;48.228;11.684;2023-12-20T04:57:49;7.30;99.90
23403;DHT22;11874;48.228;11.684;2023-12-20T05:00:18;7.30;99.90
23403;DHT22;11874;48.228;11.684;2023-12-20T05:02:46;7.20;99.90
23403;DHT22;11874;48.228;11.684;2023-12-20T05:05:14;7.20;99.90
23403;DHT22;11874;48.228;11.684;2023-12-20T05:07:44;7.20;99.90
23403;DHT22;11874;48.228;11.684;2023-12-20T05:10:13;7.20;99.90
23403;DHT22;11874;48.228;11.684;2023-12-20T05:12:42;7.10;99.90
23403;DHT22;11874;48.228;11.684;2023-12-20T05:15:11;7.10;99.90
23403;DHT22;11874;48.228;11.684;2023-12-20T05:17:40;7.10;99.90
23403;DHT22;11874;48.228;11.684;2023-12-20T05:20:09;7.10;99.90
23403;DHT22;11874;48.228;11.684;2023-12-20T05:22:37;7.20;99.90
23403;DHT22;11874;48.228;11.684;2023-12-20T05:25:06;7.10;99.90
23403;DHT22;11874;48.228;11.684;2023-12-20T05:27:34;7.10;99.90
23403;DHT22;11874;48.228;11.684;2023-12-20T05:30:02;7.10;99.90
23403;DHT22;11874;48.228;11.684;2023-12-20T05:32:36;7.10;99.90
23403;DHT22;11874;48.228;11.684;2023-12-20T05:35:04;7.00;99.90
23403;DHT22;11874;48.228;11.684;2023-12-20T05:37:32;7.00;99.90
23403;DHT22;11874;48.228;11.684;2023-12-20T05:40:00;7.00;99.90
23403;DHT22;11874;48.228;11.684;2023-12-20T05:42:29;7.00;99.90
23403;DHT22;11874;48.228;11.684;2023-12-20T05:44:58;7.00;99.90
23403;DHT22;11874;48.228;11.684;2023-12-20T05:47:26;7.00;99.90
23403;DHT22;11874;48.228;11.684;2023-12-20T05:49:56;7.00;99.90
23403;DHT22;11874;48.228;11.684;2023-12-20T05:52:24;7.00;99.90
23403;DHT22;11874;48.228;11.684;2023-12-20T05:54:52;7.00;99.90
23403;DHT22;11874;48.228;11.684;2023-12-20T05:57:20;7.00;99.90
23403;DHT22;11874;48.228;11.684;2023-12-20T05:59:50;6.90;99.90
23403;DHT22;11874;48.228;11.684;2023-12-20T06:02:17;6.90;99.90
23403;DHT22;11874;48.228;11.684;2023-12-20T06:04:47;6.90;99.90
23403;DHT22;11874;48.228;11.684;2023-12-20T06:07:19;6.90;99.90
23403;DHT22;11874;48.228;11.684;2023-12-20T06:09:47;6.90;99.90
23403;DHT22;11874;48.228;11.684;2023-12-20T06:12:15;6.90;99.90
23403;DHT22;11874;48.228;11.684;2023-12-20T06:14:43;6.90;99.90
23403;DHT22;11874;48.228;11.684;2023-12-20T06:17:11;6.90;99.90
23403;DHT22;11874;48.228;11.684;2023-12-20T06:19:39;6.90;99.90
23403;DHT22;11874;48.228;11.684;2023-12-20T06:22:09;6.80;99.90
23403;DHT22;11874;48.228;11.684;2023-12-20T06:24:39;6.80;99.90
23403;DHT22;11874;48.228;11.684;2023-12-20T06:27:07;6.80;99.90
23403;DHT22;11874;48.228;11.684;2023-12-20T06:29:35;6.80;99.90
23403;DHT22;11874;48.228;11.684;2023-12-20T06:32:04;6.80;99.90
23403;DHT22;11874;48.228;11.684;2023-12-20T06:34:32;6.70;99.90
23403;DHT22;11874;48.228;11.684;2023-12-20T06:37:01;6.70;99.90
23403;DHT22;11874;48.228;11.684;2023-12-20T06:39:29;6.70;99.90
23403;DHT22;11874;48.228;11.684;2023-12-20T06:42:00;6.70;99.90
23403;DHT22;11874;48.228;11.684;2023-12-20T06:44:28;6.70;99.90
23403;DHT22;11874;48.228;11.684;2023-12-20T06:46:56;6.60;99.90
23403;DHT22;11874;48.228;11.684;2023-12-20T06:49:24;6.60;99.90
23403;DHT22;11874;48.228;11.684;2023-12-20T06:51:53;6.60;99.90
23403;DHT22;11874;48.228;11.684;2023-12-20T06:54:22;6.60;99.90
23403;DHT22;11874;48.228;11.684;2023-12-20T06:56:50;6.60;99.90
23403;DHT22;11874;48.228;11.684;2023-12-20T06:59:20;6.60;99.90
23403;DHT22;11874;48.228;11.684;2023-12-20T07:01:48;6.60;99.90
23403;DHT22;11874;48.228;11.684;2023-12-20T07:04:17;6.60;99.90
23403;DHT22;11874;48.228;11.684;2023-12-20T07:06:48;6.50;99.90
23403;DHT22;11874;48.228;11.684;2023-12-20T07:09:18;6.50;99.90
23403;DHT22;11874;48.228;11.684;2023-12-20T07:11:47;6.60;99.90
23403;DHT22;11874;48.228;11.684;2023-12-20T07:14:15;6.60;99.90
23403;DHT22;11874;48.228;11.684;2023-12-20T07:16:44;6.50;99.90
23403;DHT22;11874;48.228;11.684;2023-12-20T07:19:13;6.50;99.90
23403;DHT22;11874;48.228;11.684;2023-12-20T07:21:41;6.60;99.90
23403;DHT22;11874;48.228;11.684;2023-12-20T07:24:09;6.50;99.90
23403;DHT22;11874;48.228;11.684;2023-12-20T07:26:38;6.50;99.90
23403;DHT22;11874;48.228;11.684;2023-12-20T07:29:07;6.60;99.90
23403;DHT22;11874;48.228;11.684;2023-12-20T07:31:35;6.50;99.90
23403;DHT22;11874;48.228;11.684;2023-12-20T07:34:05;6.50;99.90
23403;DHT22;11874;48.228;11.684;2023-12-20T07:36:33;6.50;99.90
23403;DHT22;11874;48.228;11.684;2023-12-20T07:39:01;6.50;99.90
23403;DHT22;11874;48.228;11.684;2023-12-20T07:41:29;6.50;99.90
23403;DHT22;11874;48.228;11.684;2023-12-20T07:43:57;6.50;99.90
23403;DHT22;11874;48.228;11.684;2023-12-20T07:46:25;6.50;99.90
23403;DHT22;11874;48.228;11.684;2023-12-20T07:48:54;6.50;99.90
23403;DHT22;11874;48.228;11.684;2023-12-20T07:51:23;6.50;99.90
23403;DHT22;11874;48.228;11.684;2023-12-20T07:53:51;6.40;99.90
23403;DHT22;11874;48.228;11.684;2023-12-20T07:56:20;6.50;99.90
23403;DHT22;11874;48.228;11.684;2023-12-20T07:58:49;6.50;99.90
23403;DHT22;11874;48.228;11.684;2023-12-20T08:01:20;6.50;99.90
23403;DHT22;11874;48.228;11.684;2023-12-20T08:03:49;6.50;99.90
23403;DHT22;11874;48.228;11.684;2023-12-20T08:06:18;6.50;99.90
23403;DHT22;11874;48.228;11.684;2023-12-20T08:08:48;6.50;99.90
23403;DHT22;11874;48.228;11.684;2023-12-20T08:11:27;6.50;99.90
23403;DHT22;11874;48.228;11.684;2023-12-20T08:13:55;6.50;99.90
23403;DHT22;11874;48.228;11.684;2023-12-20T08:16:23;6.50;99.90
23403;DHT22;11874;48.228;11.684;2023-12-20T08:18:51;6.50;99.90
23403;DHT22;11874;48.228;11.684;2023-12-20T08:21:20;6.50;99.90
23403;DHT22;11874;48.228;11.684;2023-12-20T08:23:52;6.50;99.90
23403;DHT22;11874;48.228;11.684;2023-12-20T08:26:20;6.40;99.90
23403;DHT22;11874;48.228;11.684;2023-12-20T08:28:50;6.40;99.90
23403;DHT22;11874;48.228;11.684;2023-12-20T08:31:18;6.40;99.90
23403;DHT22;11874;48.228;11.684;2023-12-20T08:33:47;6.40;99.90
23403;DHT22;11874;48.228;11.684;2023-12-20T08:36:16;6.40;99.90
23403;DHT22;11874;48.228;11.684;2023-12-20T08:38:45;6.40;99.90
23403;DHT22;11874;48.228;11.684;2023-12-20T08:41:16;6.40;99.90
23403;DHT22;11874;48.228;11.684;2023-12-20T08:43:45;6.40;99.90
23403;DHT22;11874;48.228;11.684;2023-12-20T08:46:14;6.40;99.90
23403;DHT22;11874;48.228;11.684;2023-12-20T08:48:42;6.40;99.90
23403;DHT22;11874;48.228;11.684;2023-12-20T08:51:13;6.40;99.90
23403;DHT22;11874;48.228;11.684;2023-12-20T08:53:41;6.40;99.90
23403;DHT22;11874;48.228;11.684;2023-12-20T08:56:12;6.50;99.90
23403;DHT22;11874;48.228;11.684;2023-12-20T08:58:41;6.50;99.90
23403;DHT22;11874;48.228;11.684;2023-12-20T09:01:10;6.50;99.90
23403;DHT22;11874;48.228;11.684;2023-12-20T09:03:38;6.50;99.90
23403;DHT22;11874;48.228;11.684;2023-12-20T09:06:07;6.50;99.90
23403;DHT22;11874;48.228;11.684;2023-12-20T09:08:37;6.50;99.90
23403;DHT22;11874;48.228;11.684;2023-12-20T09:11:06;6.50;99.90
23403;DHT22;11874;48.228;11.684;2023-12-20T09:13:35;6.50;99.90
23403;DHT22;11874;48.228;11.684;2023-12-20T09:16:05;6.50;99.90
23403;DHT22;11874;48.228;11.684;2023-12-20T09:18:33;6.50;99.90
23403;DHT22;11874;48.228;11.684;2023-12-20T09:21:01;6.50;99.90
23403;DHT22;11874;48.228;11.684;2023-12-20T09:23:29;6.50;99.90
23403;DHT22;11874;48.228;11.684;2023-12-20T09:25:57;6.50;99.90
23403;DHT22;11874;48.228;11.684;2023-12-20T09:28:26;6.60;99.90
23403;DHT22;11874;48.228;11.684;2023-12-20T09:30:54;6.50;99.90
23403;DHT22;11874;48.228;11.684;2023-12-20T09:33:23;6.50;99.90
23403;DHT22;11874;48.228;11.684;2023-12-20T09:35:52;6.60;99.90
23403;DHT22;11874;48.228;11.684;2023-12-20T09:38:20;6.50;99.90
23403;DHT22;11874;48.228;11.684;2023-12-20T09:40:49;6.50;99.90
23403;DHT22;11874;48.228;11.684;2023-12-20T09:43:19;6.50;99.90
23403;DHT22;11874;48.228;11.684;2023-12-20T09:45:49;6.50;99.90
23403;DHT22;11874;48.228;11.684;2023-12-20T09:48:24;6.50;99.90
23403;DHT22;11874;48.228;11.684;2023-12-20T09:50:54;6.50;99.90
23403;DHT22;11874;48.228;11.684;2023-12-20T09:53:24;6.50;99.90
23403;DHT22;11874;48.228;11.684;2023-12-20T09:55:58;6.60;99.90
23403;DHT22;11874;48.228;11.684;2023-12-20T09:58:27;6.50;99.90
23403;DHT22;11874;48.228;11.684;2023-12-20T10:00:55;6.50;99.90
23403;DHT22;11874;48.228;11.684;2023-12-20T10:03:26;6.60;99.90
23403;DHT22;11874;48.228;11.684;2023-12-20T10:05:56;6.50;99.90
23403;DHT22;11874;48.228;11.684;2023-12-20T10:08:25;6.60;99.90
23403;DHT22;11874;48.228;11.684;2023-12-20T10:10:54;6.50;99.90
23403;DHT22;11874;48.228;11.684;2023-12-20T10:13:24;6.60;99.90
23403;DHT22;11874;48.228;11.684;2023-12-20T10:15:54;6.60;99.90
23403;DHT22;11874;48.228;11.684;2023-12-20T10:18:26;6.60;99.90
23403;DHT22;11874;48.228;11.684;2023-12-20T10:21:06;6.60;99.90
23403;DHT22;11874;48.228;11.684;2023-12-20T10:23:34;6.70;99.90
23403;DHT22;11874;48.228;11.684;2023-12-20T10:26:03;6.70;99.90
23403;DHT22;11874;48.228;11.684;2023-12-20T10:28:34;6.70;99.90
23403;DHT22;11874;48.228;11.684;2023-12-20T10:31:02;6.70;99.90
23403;DHT22;11874;48.228;11.684;2023-12-20T10:33:32;6.70;99.90
23403;DHT22;11874;48.228;11.684;2023-12-20T10:36:01;6.70;99.90
23403;DHT22;11874;48.228;11.684;2023-12-20T10:38:30;6.80;99.90
23403;DHT22;11874;48.228;11.684;2023-12-20T10:40:58;6.80;99.90
23403;DHT22;11874;48.228;11.684;2023-12-20T10:43:27;6.90;99.90
23403;DHT22;11874;48.228;11.684;2023-12-20T10:45:59;6.80;99.90
23403;DHT22;11874;48.228;11.684;2023-12-20T10:48:28;6.80;99.90
23403;DHT22;11874;48.228;11.684;2023-12-20T10:51:01;6.80;99.90
23403;DHT22;11874;48.228;11.684;2023-12-20T10:53:30;6.80;99.90
23403;DHT22;11874;48.228;11.684;2023-12-20T10:56:00;6.80;99.90
23403;DHT22;11874;48.228;11.684;2023-12-20T10:58:32;6.80;99.90
23403;DHT22;11874;48.228;11.684;2023-12-20T11:01:01;6.80;99.90
23403;DHT22;11874;48.228;11.684;2023-12-20T11:03:34;6.80;99.90
23403;DHT22;11874;48.228;11.684;2023-12-20T11:06:10;6.80;99.90
23403;DHT22;11874;48.228;11.684;2023-12-20T11:08:50;6.80;99.90
23403;DHT22;11874;48.228;11.684;2023-12-20T11:11:29;6.80;99.90
23403;DHT22;11874;48.228;11.684;2023-12-20T11:14:02;6.70;99.90
23403;DHT22;11874;48.228;11.684;2023-12-20T11:16:31;6.70;99.90
23403;DHT22;11874;48.228;11.684;2023-12-20T11:19:14;6.80;99.90
23403;DHT22;11874;48.228;11.684;2023-12-20T11:21:46;6.80;99.90
23403;DHT22;11874;48.228;11.684;2023-12-20T11:24:15;6.80;99.90
23403;DHT22;11874;48.228;11.684;2023-12-20T11:26:47;6.80;99.90
23403;DHT22;11874;48.228;11.684;2023-12-20T11:29:32;6.80;99.90
23403;DHT22;11874;48.228;11.684;2023-12-20T11:32:02;6.80;99.90
23403;DHT22;11874;48.228;11.684;2023-12-20T11:34:33;6.80;99.90
23403;DHT22;11874;48.228;11.684;2023-12-20T11:37:05;6.80;99.90
23403;DHT22;11874;48.228;11.684;2023-12-20T11:39:33;6.80;99.90
23403;DHT22;11874;48.228;11.684;2023-12-20T11:42:04;6.90;99.90
23403;DHT22;11874;48.228;11.684;2023-12-20T11:44:33;6.90;99.90
23403;DHT22;11874;48.228;11.684;2023-12-20T11:47:01;6.90;99.90
23403;DHT22;11874;48.228;11.684;2023-12-20T11:49:29;6.90;99.90
23403;DHT22;11874;48.228;11.684;2023-12-20T11:51:58;6.90;99.90
23403;DHT22;11874;48.228;11.684;2023-12-20T11:54:30;6.90;99.90
23403;DHT22;11874;48.228;11.684;2023-12-20T11:57:02;6.90;99.90
23403;DHT22;11874;48.228;11.684;2023-12-20T11:59:30;7.00;99.90
23403;DHT22;11874;48.228;11.684;2023-12-20T12:02:00;7.00;99.90
23403;DHT22;11874;48.228;11.684;2023-12-20T12:04:28;7.00;99.90
23403;DHT22;11874;48.228;11.684;2023-12-20T12:06:59;7.00;99.90
23403;DHT22;11874;48.228;11.684;2023-12-20T12:09:32;7.00;99.90
23403;DHT22;11874;48.228;11.684;2023-12-20T12:12:01;7.00;99.90
23403;DHT22;11874;48.228;11.684;2023-12-20T12:14:31;7.00;99.90
23403;DHT22;11874;48.228;11.684;2023-12-20T12:16:59;7.00;99.90
23403;DHT22;11874;48.228;11.684;2023-12-20T12:19:27;7.00;99.90
23403;DHT22;11874;48.228;11.684;2023-12-20T12:22:04;7.00;99.90
23403;DHT22;11874;48.228;11.684;2023-12-20T12:24:35;7.00;99.90
23403;DHT22;11874;48.228;11.684;2023-12-20T12:27:07;7.00;99.90
23403;DHT22;11874;48.228;11.684;2023-12-20T12:29:36;7.00;99.90
23403;DHT22;11874;48.228;11.684;2023-12-20T12:32:06;7.00;99.90
23403;DHT22;11874;48.228;11.684;2023-12-20T12:34:35;7.00;99.90
23403;DHT22;11874;48.228;11.684;2023-12-20T12:37:04;7.00;99.90
23403;DHT22;11874;48.228;11.684;2023-12-20T12:39:32;7.00;99.90
23403;DHT22;11874;48.228;11.684;2023-12-20T12:42:03;6.90;99.90
23403;DHT22;11874;48.228;11.684;2023-12-20T12:44:31;6.90;99.90
23403;DHT22;11874;48.228;11.684;2023-12-20T12:47:02;6.80;99.90
23403;DHT22;11874;48.228;11.684;2023-12-20T12:49:30;6.80;99.90
23403;DHT22;11874;48.228;11.684;2023-12-20T12:51:59;6.80;99.90
23403;DHT22;11874;48.228;11.684;2023-12-20T12:54:27;6.80;99.90
23403;DHT22;11874;48.228;11.684;2023-12-20T12:56:55;6.80;99.90
23403;DHT22;11874;48.228;11.684;2023-12-20T12:59:26;6.80;99.90
23403;DHT22;11874;48.228;11.684;2023-12-20T13:01:54;6.80;99.90
23403;DHT22;11874;48.228;11.684;2023-12-20T13:04:22;6.80;99.90
23403;DHT22;11874;48.228;11.684;2023-12-20T13:06:51;6.80;99.90
23403;DHT22;11874;48.228;11.684;2023-12-20T13:09:19;6.80;99.90
23403;DHT22;11874;48.228;11.684;2023-12-20T13:11:48;6.70;99.90
23403;DHT22;11874;48.228;11.684;2023-12-20T13:14:19;6.70;99.90
23403;DHT22;11874;48.228;11.684;2023-12-20T13:16:48;6.70;99.90
23403;DHT22;11874;48.228;11.684;2023-12-20T13:19:17;6.70;99.90
23403;DHT22;11874;48.228;11.684;2023-12-20T13:21:45;6.70;99.90
23403;DHT22;11874;48.228;11.684;2023-12-20T13:24:17;6.80;99.90
23403;DHT22;11874;48.228;11.684;2023-12-20T13:26:47;6.80;99.90
23403;DHT22;11874;48.228;11.684;2023-12-20T13:29:15;6.80;99.90
23403;DHT22;11874;48.228;11.684;2023-12-20T13:31:43;6.80;99.90
23403;DHT22;11874;48.228;11.684;2023-12-20T13:34:13;6.80;99.90
23403;DHT22;11874;48.228;11.684;2023-12-20T13:36:44;6.80;99.90
23403;DHT22;11874;48.228;11.684;2023-12-20T13:39:15;6.80;99.90
23403;DHT22;11874;48.228;11.684;2023-12-20T13:41:44;6.80;99.90
23403;DHT22;11874;48.228;11.684;2023-12-20T13:44:15;6.80;99.90
23403;DHT22;11874;48.228;11.684;2023-12-20T13:46:44;6.80;99.90
23403;DHT22;11874;48.228;11.684;2023-12-20T13:49:18;6.70;99.90
23403;DHT22;11874;48.228;11.684;2023-12-20T13:51:48;6.70;99.90
23403;DHT22;11874;48.228;11.684;2023-12-20T13:54:16;6.70;99.90
23403;DHT22;11874;48.228;11.684;2023-12-20T13:56:47;6.70;99.90
23403;DHT22;11874;48.228;11.684;2023-12-20T13:59:33;6.70;99.90
23403;DHT22;11874;48.228;11.684;2023-12-20T14:02:02;6.70;99.90
23403;DHT22;11874;48.228;11.684;2023-12-20T14:04:32;6.70;99.90
23403;DHT22;11874;48.228;11.684;2023-12-20T14:07:09;6.70;99.90
23403;DHT22;11874;48.228;11.684;2023-12-20T14:09:39;6.70;99.90
23403;DHT22;11874;48.228;11.684;2023-12-20T14:12:13;6.70;99.90
23403;DHT22;11874;48.228;11.684;2023-12-20T14:14:41;6.70;99.90
23403;DHT22;11874;48.228;11.684;2023-12-20T14:17:13;6.70;99.90
23403;DHT22;11874;48.228;11.684;2023-12-20T14:19:42;6.60;99.90
23403;DHT22;11874;48.228;11.684;2023-12-20T14:22:10;6.60;99.90
23403;DHT22;11874;48.228;11.684;2023-12-20T14:24:42;6.60;99.90
23403;DHT22;11874;48.228;11.684;2023-12-20T14:27:11;6.50;99.90
23403;DHT22;11874;48.228;11.684;2023-12-20T14:29:40;6.60;99.90
23403;DHT22;11874;48.228;11.684;2023-12-20T14:32:07;6.60;99.90
23403;DHT22;11874;48.228;11.684;2023-12-20T14:34:36;6.60;99.90
23403;DHT22;11874;48.228;11.684;2023-12-20T14:37:06;6.60;99.90
23403;DHT22;11874;48.228;11.684;2023-12-20T14:39:35;6.60;99.90
23403;DHT22;11874;48.228;11.684;2023-12-20T14:42:06;6.60;99.90
23403;DHT22;11874;48.228;11.684;2023-12-20T14:44:43;6.50;99.90
23403;DHT22;11874;48.228;11.684;2023-12-20T14:47:12;6.50;99.90
23403;DHT22;11874;48.228;11.684;2023-12-20T14:49:42;6.50;99.90
23403;DHT22;11874;48.228;11.684;2023-12-20T14:52:17;6.50;99.90
23403;DHT22;11874;48.228;11.684;2023-12-20T14:54:45;6.50;99.90
23403;DHT22;11874;48.228;11.684;2023-12-20T14:57:13;6.40;99.90
23403;DHT22;11874;48.228;11.684;2023-12-20T14:59:43;6.50;99.90
23403;DHT22;11874;48.228;11.684;2023-12-20T15:02:13;6.50;99.90
23403;DHT22;11874;48.228;11.684;2023-12-20T15:04:42;6.50;99.90
23403;DHT22;11874;48.228;11.684;2023-12-20T15:07:10;6.50;99.90
23403;DHT22;11874;48.228;11.684;2023-12-20T15:09:40;6.50;99.90
23403;DHT22;11874;48.228;11.684;2023-12-20T15:12:12;6.50;99.90
23403;DHT22;11874;48.228;11.684;2023-12-20T15:14:41;6.50;99.90
23403;DHT22;11874;48.228;11.684;2023-12-20T15:17:11;6.50;99.90
23403;DHT22;11874;48.228;11.684;2023-12-20T15:19:39;6.50;99.90
23403;DHT22;11874;48.228;11.684;2023-12-20T15:22:09;6.40;99.90
23403;DHT22;11874;48.228;11.684;2023-12-20T15:24:37;6.50;99.90
23403;DHT22;11874;48.228;11.684;2023-12-20T15:27:08;6.40;99.90
23403;DHT22;11874;48.228;11.684;2023-12-20T15:29:37;6.40;99.90
23403;DHT22;11874;48.228;11.684;2023-12-20T15:32:06;6.40;99.90
23403;DHT22;11874;48.228;11.684;2023-12-20T15:34:35;6.40;99.90
23403;DHT22;11874;48.228;11.684;2023-12-20T15:37:03;6.40;99.90
23403;DHT22;11874;48.228;11.684;2023-12-20T15:39:31;6.40;99.90
23403;DHT22;11874;48.228;11.684;2023-12-20T15:42:00;6.40;99.90